Terminal Aerodrome Forecast
Issued by NWS

Home | Current Version | Previous Version | Text Only | Print | Product List | Glossary On
Versions: 1 2 3 4 5 6 7 8 9 10 11 12
108
FTPA31 PHFO 271735
TAFHJR
TAF
PHJR 271735Z 2718/2818 05004KT P6SM FEW045
     FM272000 07010G16KT P6SM FEW045
     FM280600 05004KT P6SM FEW030 SCT045=

USA.gov is the U.S. government's official web portal to all federal, state and local government web resources and services.